createdAt,value
2023-02-26T00:02:11.925Z,61.78
2023-02-26T00:04:45.924Z,64.06
2023-02-26T00:07:18.249Z,64.04
2023-02-26T00:09:47.303Z,62.55
2023-02-26T00:12:18.996Z,61.54
2023-02-26T00:14:50.070Z,60.31
2023-02-26T00:17:40.493Z,59.43
2023-02-26T00:20:13.879Z,59.63
2023-02-26T00:22:45.332Z,62.18
2023-02-26T00:25:16.374Z,63.43
2023-02-26T00:27:53.410Z,62.73
2023-02-26T00:30:23.812Z,61.60
2023-02-26T00:32:56.910Z,60.65
2023-02-26T00:35:27.627Z,59.85
2023-02-26T00:38:07.657Z,58.90
2023-02-26T00:40:47.026Z,60.21
2023-02-26T00:43:47.527Z,62.46
2023-02-26T00:46:34.685Z,63.59
2023-02-26T00:49:24.673Z,62.65
2023-02-26T00:52:06.466Z,61.55
2023-02-26T00:54:36.602Z,60.53
2023-02-26T00:57:07.242Z,59.62
2023-02-26T00:59:52.851Z,59.39
2023-02-26T01:02:32.665Z,60.96
2023-02-26T01:05:08.723Z,63.78
2023-02-26T01:07:56.784Z,63.87
2023-02-26T01:10:34.225Z,62.42
2023-02-26T01:13:08.562Z,61.41
2023-02-26T01:15:42.168Z,60.36
2023-02-26T01:18:28.075Z,58.75
2023-02-26T01:21:04.622Z,59.28
2023-02-26T01:24:05.895Z,61.38
2023-02-26T01:26:42.821Z,63.40
2023-02-26T01:29:22.636Z,63.86
2023-02-26T01:32:12.282Z,62.40
2023-02-26T01:35:04.505Z,61.04
2023-02-26T01:37:44.519Z,59.54
2023-02-26T01:40:53.774Z,59.35
2023-02-26T01:44:16.947Z,62.04
2023-02-26T01:47:09.233Z,63.14
2023-02-26T01:49:58.078Z,62.21
2023-02-26T01:52:56.917Z,60.96
2023-02-26T01:55:29.279Z,60.09
2023-02-26T01:58:02.806Z,59.18
2023-02-26T02:00:34.909Z,59.20
2023-02-26T02:03:06.166Z,60.54
2023-02-26T02:06:12.877Z,62.69
2023-02-26T02:08:47.134Z,63.95
2023-02-26T02:11:18.342Z,62.97
2023-02-26T02:14:19.735Z,61.93
2023-02-26T02:17:18.346Z,60.97
2023-02-26T02:20:00.936Z,59.55
2023-02-26T02:22:55.359Z,58.94
2023-02-26T02:26:07.101Z,60.72
2023-02-26T02:29:12.295Z,63.30
2023-02-26T02:32:10.770Z,63.25
2023-02-26T02:34:46.194Z,62.20
2023-02-26T02:37:26.584Z,60.78
2023-02-26T02:40:06.057Z,60.00
2023-02-26T02:43:15.923Z,58.63
2023-02-26T02:45:56.576Z,60.12
2023-02-26T02:48:39.629Z,62.66
2023-02-26T02:51:19.344Z,63.09
2023-02-26T02:54:22.872Z,62.05
2023-02-26T02:57:09.025Z,60.93
2023-02-26T02:59:52.990Z,59.95
2023-02-26T03:03:00.652Z,59.20
2023-02-26T03:05:31.337Z,59.75
2023-02-26T03:08:15.120Z,62.24
2023-02-26T03:10:46.516Z,63.65
2023-02-26T03:13:42.535Z,62.87
2023-02-26T03:16:54.048Z,61.68
2023-02-26T03:20:11.015Z,60.49
2023-02-26T03:23:17.348Z,59.62
2023-02-26T03:26:21.565Z,59.32
2023-02-26T03:29:27.616Z,61.95
2023-02-26T03:32:53.243Z,64.00
2023-02-26T03:36:07.367Z,62.88
2023-02-26T03:39:36.931Z,61.58
2023-02-26T03:42:21.729Z,60.89
2023-02-26T03:45:19.602Z,59.79
2023-02-26T03:47:55.144Z,58.88
2023-02-26T03:51:05.609Z,59.53
2023-02-26T03:54:31.146Z,62.31
2023-02-26T03:57:20.197Z,64.53
2023-02-26T04:00:18.091Z,63.44
2023-02-26T04:03:08.173Z,62.33
2023-02-26T04:05:54.656Z,61.37
2023-02-26T04:08:27.803Z,60.54
2023-02-26T04:11:20.541Z,60.12
2023-02-26T04:14:17.219Z,59.28
2023-02-26T04:16:49.198Z,59.31
2023-02-26T04:19:22.205Z,61.68
2023-02-26T04:23:12.390Z,64.15
2023-02-26T04:25:41.143Z,63.46
2023-02-26T04:28:13.447Z,62.22
2023-02-26T04:30:45.508Z,61.14
2023-02-26T04:33:16.683Z,60.43
2023-02-26T04:35:47.390Z,59.70
2023-02-26T04:38:34.518Z,59.43
2023-02-26T04:41:09.357Z,59.19
2023-02-26T04:43:39.908Z,61.43
2023-02-26T04:46:17.797Z,63.70
2023-02-26T04:48:47.207Z,63.35
2023-02-26T04:51:34.996Z,62.08
2023-02-26T04:57:06.105Z,60.48
2023-02-26T05:00:04.550Z,59.70
2023-02-26T05:03:05.594Z,59.12
2023-02-26T05:05:58.498Z,61.51
2023-02-26T05:11:46.986Z,64.42
2023-02-26T05:38:00.608Z,61.46
2023-02-26T05:50:05.182Z,61.43
2023-02-26T05:59:41.421Z,61.12
2023-02-26T06:02:26.018Z,59.85
2023-02-26T06:24:47.963Z,59.80
2023-02-26T06:31:11.019Z,60.81
2023-02-26T06:37:31.945Z,62.77
2023-02-26T06:41:00.020Z,61.48
2023-02-26T06:53:15.705Z,63.32
2023-02-26T06:55:55.531Z,62.86
2023-02-26T06:58:26.174Z,61.46
2023-02-26T07:01:04.418Z,60.32
2023-02-26T07:03:40.052Z,58.91
2023-02-26T07:06:26.488Z,60.22
2023-02-26T07:09:02.328Z,62.55
2023-02-26T07:11:33.136Z,63.59
2023-02-26T07:14:07.082Z,62.53
2023-02-26T07:16:35.693Z,60.77
2023-02-26T07:19:04.504Z,59.56
2023-02-26T07:21:33.451Z,58.74
2023-02-26T07:24:02.716Z,59.76
2023-02-26T07:26:32.137Z,61.04
2023-02-26T07:29:01.691Z,63.16
2023-02-26T08:07:52.578Z,60.00
2023-02-26T08:11:02.302Z,61.73
2023-02-26T08:13:32.059Z,62.56
2023-02-26T08:16:01.339Z,63.02
2023-02-26T08:18:30.724Z,61.41
2023-02-26T08:20:59.389Z,59.12
2023-02-26T08:23:28.245Z,58.56
2023-02-26T08:26:16.710Z,59.79
2023-02-26T08:29:13.201Z,61.09
2023-02-26T08:32:06.923Z,62.01
2023-02-26T09:29:19.936Z,60.60
2023-02-26T09:32:05.909Z,58.65
2023-02-26T09:35:26.943Z,58.18
2023-02-26T09:38:00.598Z,59.66
2023-02-26T09:41:00.461Z,60.37
2023-02-26T09:44:04.465Z,60.90
2023-02-26T09:46:40.655Z,61.84
2023-02-26T09:49:26.870Z,62.96
2023-02-26T09:52:35.466Z,63.07
2023-02-26T09:55:33.035Z,58.59
2023-02-26T09:58:36.129Z,56.50
2023-02-26T10:01:26.954Z,57.56
2023-02-26T10:04:20.741Z,57.93
2023-02-26T10:07:01.958Z,58.13
2023-02-26T10:09:58.535Z,57.01
2023-02-26T10:12:38.185Z,57.68
2023-02-26T10:15:12.661Z,58.03
2023-02-26T10:17:52.627Z,57.64
2023-02-26T10:20:39.980Z,58.07
2023-02-26T10:23:33.450Z,56.63
2023-02-26T10:26:37.589Z,56.87
2023-02-26T10:29:55.170Z,56.46
2023-02-26T10:32:54.758Z,55.63
2023-02-26T10:36:13.441Z,54.74
2023-02-26T10:43:03.608Z,55.95
2023-02-26T10:46:14.959Z,56.13
2023-02-26T10:49:10.230Z,55.97
2023-02-26T10:51:43.423Z,56.61
2023-02-26T10:54:29.746Z,56.66
2023-02-26T10:57:01.874Z,56.19
2023-02-26T11:00:07.235Z,56.08
2023-02-26T11:03:11.805Z,56.18
2023-02-26T11:06:47.648Z,56.31
2023-02-26T11:10:08.727Z,57.00
2023-02-26T11:13:17.026Z,57.74
2023-02-26T11:15:53.022Z,58.52
2023-02-26T11:18:57.430Z,58.60
2023-02-26T11:21:38.513Z,59.12
2023-02-26T11:24:37.185Z,59.00
2023-02-26T11:27:16.563Z,59.54
2023-02-26T11:30:25.705Z,59.60
2023-02-26T11:33:06.792Z,59.02
2023-02-26T11:36:40.706Z,56.80
2023-02-26T11:39:53.548Z,56.21
2023-02-26T11:51:34.838Z,52.41
2023-02-26T12:18:02.418Z,56.67
2023-02-26T12:26:17.931Z,57.58
2023-02-26T12:30:03.760Z,57.81
2023-02-26T12:33:37.434Z,58.40
2023-02-26T12:41:43.451Z,55.85
2023-02-26T12:55:41.259Z,57.06
2023-02-26T12:59:56.211Z,57.40
2023-02-26T13:08:25.782Z,57.69
2023-02-26T13:11:33.308Z,57.87
2023-02-26T13:14:23.322Z,58.31
2023-02-26T13:17:13.923Z,58.73
2023-02-26T13:19:53.082Z,58.62
2023-02-26T13:22:41.089Z,58.88
2023-02-26T13:25:41.655Z,59.06
2023-02-26T13:28:40.237Z,58.41
2023-02-26T13:31:19.471Z,57.79
2023-02-26T13:33:52.214Z,57.61
2023-02-26T13:36:27.065Z,57.84
2023-02-26T13:39:14.971Z,56.04
2023-02-26T13:42:29.144Z,55.68
2023-02-26T13:45:54.633Z,54.90
2023-02-26T13:48:57.724Z,55.31
2023-02-26T13:51:56.825Z,55.29
2023-02-26T13:54:47.421Z,54.97
2023-02-26T13:57:27.945Z,55.21
2023-02-26T14:00:50.297Z,55.13
2023-02-26T14:04:41.339Z,55.17
2023-02-26T14:08:38.385Z,55.89
2023-02-26T14:17:28.146Z,53.04
2023-02-26T14:52:30.613Z,49.55
2023-02-26T14:55:32.764Z,50.15
2023-02-26T14:58:42.769Z,49.82
2023-02-26T15:01:30.223Z,50.17
2023-02-26T15:04:36.233Z,49.66
2023-02-26T15:07:36.721Z,48.42
2023-02-26T15:10:45.230Z,48.34
2023-02-26T15:13:34.491Z,47.75
2023-02-26T15:16:13.977Z,47.78
2023-02-26T15:19:16.806Z,47.21
2023-02-26T15:22:07.384Z,47.42
2023-02-26T15:24:37.091Z,47.31
2023-02-26T15:27:12.008Z,47.85
2023-02-26T15:29:43.475Z,48.61
2023-02-26T15:32:27.902Z,48.59
2023-02-26T15:35:09.504Z,48.22
2023-02-26T15:37:39.303Z,48.90
2023-02-26T15:40:10.380Z,49.24
2023-02-26T15:42:42.235Z,49.33
2023-02-26T15:45:32.520Z,49.16
2023-02-26T15:48:08.570Z,49.18
2023-02-26T15:50:42.110Z,48.28
2023-02-26T15:53:35.193Z,48.50
2023-02-26T15:56:23.406Z,48.84
2023-02-26T15:59:03.372Z,49.14
2023-02-26T16:01:32.770Z,49.08
2023-02-26T16:04:08.802Z,48.19
2023-02-26T16:06:49.289Z,48.76
2023-02-26T16:09:32.412Z,49.07
2023-02-26T16:12:13.344Z,50.01
2023-02-26T16:14:49.189Z,50.40
2023-02-26T16:17:31.780Z,50.55
2023-02-26T16:20:11.124Z,50.95
2023-02-26T16:22:51.906Z,51.42
2023-02-26T16:25:35.954Z,51.99
2023-02-26T16:28:21.652Z,52.21
2023-02-26T16:30:56.609Z,52.75
2023-02-26T16:33:28.622Z,53.73
2023-02-26T16:36:17.675Z,55.21
2023-02-26T16:39:08.880Z,56.53
2023-02-26T16:41:43.292Z,58.54
2023-02-26T16:44:33.414Z,58.98
2023-02-26T16:47:23.742Z,59.78
2023-02-26T16:49:58.862Z,60.88
2023-02-26T16:52:30.899Z,61.34
2023-02-26T16:55:11.919Z,61.07
2023-02-26T16:57:46.029Z,61.84
2023-02-26T17:00:33.808Z,61.53
2023-02-26T17:03:07.141Z,61.75
2023-02-26T17:05:59.330Z,62.05
2023-02-26T17:08:36.583Z,62.13
2023-02-26T17:11:18.536Z,62.59
2023-02-26T17:14:12.978Z,60.79
2023-02-26T17:16:44.621Z,58.45
2023-02-26T17:19:16.080Z,56.74
2023-02-26T17:21:55.718Z,57.17
2023-02-26T17:24:32.725Z,57.88
2023-02-26T17:27:06.496Z,58.60
2023-02-26T17:29:39.936Z,58.97
2023-02-26T17:32:23.431Z,59.38
2023-02-26T17:34:54.002Z,59.84
2023-02-26T17:37:32.287Z,60.52
2023-02-26T17:40:04.474Z,61.10
2023-02-26T17:42:37.642Z,61.45
2023-02-26T17:45:07.561Z,61.99
2023-02-26T17:47:36.476Z,62.14
2023-02-26T17:50:45.444Z,63.11
2023-02-26T17:53:21.976Z,61.91
2023-02-26T17:55:54.149Z,60.33
2023-02-26T17:58:35.818Z,57.71
2023-02-26T18:01:05.460Z,57.62
2023-02-26T18:03:34.523Z,58.20
2023-02-26T18:06:04.681Z,59.07
2023-02-26T18:08:36.504Z,59.64
2023-02-26T18:11:05.458Z,60.35
2023-02-26T18:13:35.717Z,61.13
2023-02-26T18:16:05.958Z,61.37
2023-02-26T18:18:36.124Z,61.99
2023-02-26T18:21:06.570Z,62.52
2023-02-26T18:23:35.383Z,63.53
2023-02-26T18:26:04.733Z,62.71
2023-02-26T18:28:34.068Z,60.54
2023-02-26T18:31:09.233Z,58.52
2023-02-26T18:33:42.907Z,57.64
2023-02-26T18:36:38.234Z,58.37
2023-02-26T18:39:13.639Z,59.20
2023-02-26T18:41:44.614Z,60.01
2023-02-26T18:44:13.359Z,60.67
2023-02-26T18:46:43.076Z,61.92
2023-02-26T18:49:19.000Z,62.78
2023-02-26T18:51:48.154Z,64.04
2023-02-26T18:54:17.811Z,62.84
2023-02-26T18:56:47.556Z,60.76
2023-02-26T18:59:16.257Z,58.65
2023-02-26T19:01:49.573Z,57.40
2023-02-26T19:04:25.424Z,57.68
2023-02-26T19:06:56.092Z,58.28
2023-02-26T19:09:31.365Z,58.94
2023-02-26T19:12:06.125Z,59.54
2023-02-26T19:14:36.108Z,59.99
2023-02-26T19:17:06.364Z,60.67
2023-02-26T19:19:45.794Z,61.54
2023-02-26T19:22:16.964Z,61.80
2023-02-26T19:24:50.446Z,62.11
2023-02-26T19:27:21.301Z,63.27
2023-02-26T19:29:50.933Z,64.13
2023-02-26T19:32:21.993Z,62.39
2023-02-26T19:34:53.047Z,59.81
2023-02-26T19:37:26.988Z,57.59
2023-02-26T19:39:56.683Z,57.95
2023-02-26T19:42:28.661Z,58.86
2023-02-26T19:44:59.857Z,59.69
2023-02-26T19:50:12.139Z,60.88
2023-02-26T19:52:43.363Z,61.37
2023-02-26T19:55:15.256Z,61.45
2023-02-26T19:57:48.344Z,61.38
2023-02-26T20:00:22.740Z,61.18
2023-02-26T20:05:38.040Z,61.07
2023-02-26T20:11:06.520Z,60.44
2023-02-26T20:13:36.764Z,60.59
2023-02-26T20:16:09.367Z,60.82
2023-02-26T20:18:40.524Z,60.94
2023-02-26T20:21:14.521Z,60.96
2023-02-26T20:23:56.947Z,61.00
2023-02-26T20:26:26.578Z,61.01
2023-02-26T20:29:01.697Z,61.12
2023-02-26T20:31:32.326Z,61.41
2023-02-26T20:34:01.864Z,61.47
2023-02-26T20:36:35.736Z,61.30
2023-02-26T20:39:07.609Z,61.65
2023-02-26T20:41:36.773Z,61.65
2023-02-26T20:44:05.897Z,61.71
2023-02-26T20:46:36.647Z,61.92
2023-02-26T20:49:14.073Z,61.71
2023-02-26T20:51:44.573Z,61.74
2023-02-26T20:54:17.077Z,62.06
2023-02-26T20:56:46.170Z,62.14
2023-02-26T20:59:19.646Z,62.23
2023-02-26T21:01:52.064Z,62.30
2023-02-26T21:04:23.229Z,62.32
2023-02-26T21:06:52.864Z,62.34
2023-02-26T21:09:21.949Z,62.48
2023-02-26T21:11:52.773Z,63.19
2023-02-26T21:14:22.120Z,61.97
2023-02-26T21:17:00.470Z,59.64
2023-02-26T21:19:29.570Z,57.07
2023-02-26T21:22:06.348Z,57.26
2023-02-26T21:24:36.311Z,57.75
2023-02-26T21:27:07.405Z,58.50
2023-02-26T21:29:36.655Z,58.79
2023-02-26T21:32:07.563Z,59.20
2023-02-26T21:34:36.912Z,59.57
2023-02-26T21:37:11.469Z,59.95
2023-02-26T21:39:44.075Z,60.53
2023-02-26T21:42:16.834Z,61.08
2023-02-26T21:44:47.957Z,61.61
2023-02-26T21:47:19.276Z,61.86
2023-02-26T21:49:51.838Z,62.01
2023-02-26T21:52:21.538Z,62.29
2023-02-26T21:54:50.943Z,62.46
2023-02-26T21:57:19.955Z,63.30
2023-02-26T21:59:51.422Z,62.75
2023-02-26T22:02:20.565Z,60.28
2023-02-26T22:04:50.077Z,58.36
2023-02-26T22:07:20.219Z,56.63
2023-02-26T22:09:50.762Z,57.17
2023-02-26T22:12:21.927Z,57.94
2023-02-26T22:14:51.100Z,58.55
2023-02-26T22:17:20.329Z,59.03
2023-02-26T22:19:49.649Z,59.49
2023-02-26T22:22:20.654Z,60.02
2023-02-26T22:24:52.233Z,60.62
2023-02-26T22:27:22.820Z,61.04
2023-02-26T22:29:53.813Z,61.33
2023-02-26T22:32:24.096Z,61.70
2023-02-26T22:34:56.209Z,62.28
2023-02-26T22:37:25.323Z,63.18
2023-02-26T22:39:55.252Z,63.30
2023-02-26T22:42:25.150Z,61.33
2023-02-26T22:44:54.207Z,59.27
2023-02-26T22:47:23.675Z,57.03
2023-02-26T22:49:53.763Z,57.42
2023-02-26T22:52:27.829Z,58.39
2023-02-26T22:54:58.340Z,59.06
2023-02-26T22:57:30.246Z,59.74
2023-02-26T23:00:00.086Z,60.43
2023-02-26T23:02:30.306Z,60.93
2023-02-26T23:05:00.261Z,61.61
2023-02-26T23:07:32.509Z,61.82
2023-02-26T23:10:02.318Z,62.64
2023-02-26T23:12:37.058Z,63.08
2023-02-26T23:15:09.309Z,61.35
2023-02-26T23:17:38.358Z,59.62
2023-02-26T23:20:10.398Z,57.40
2023-02-26T23:22:43.191Z,57.88
2023-02-26T23:25:13.644Z,58.63
2023-02-26T23:27:46.066Z,59.57
2023-02-26T23:30:16.974Z,60.29
2023-02-26T23:32:49.750Z,60.82
2023-02-26T23:35:19.036Z,61.64
2023-02-26T23:37:50.027Z,62.66
2023-02-26T23:40:22.322Z,62.53
2023-02-26T23:42:51.436Z,60.46
2023-02-26T23:45:24.376Z,59.03
2023-02-26T23:47:57.129Z,57.63
2023-02-26T23:50:32.426Z,58.24
2023-02-26T23:53:02.182Z,59.47
2023-02-26T23:55:32.497Z,60.23
2023-02-26T23:58:06.537Z,60.86
